Alleman, Iowa
Current Conditions -  °F | °C
As of 12:35 AM on Wednesday 26 Nov 2014 (Local Time) from KIKV Reporting Station
Overcast Overcast  
Wind Chill: 21°   Ceiling: 6000
Heat Index: 30°   Visibility: 10mi
Dew Point: 18°   Wind: 12mph
Humidity: 60%   Direction: 140°SE
Pressure: 29.95"   Gusts: NA
Location:  41.82°N, 93.61°W
Report Text: KIKV 260635Z AUTO 14010KT 10SM BKN060 OVC070 M01/M08 A2995 RMK AO2
Loading
Personal Weather Stations






























Interactive Weather Map New forecast layout! Learn more

10-Day Weather Forecast

Advertisements
Track Severe Weather on mobile